createdAt,value
2024-04-10T00:00:34.126Z,19.81
2024-04-10T00:03:25.670Z,19.76
2024-04-10T00:06:06.076Z,19.72
2024-04-10T00:08:39.494Z,19.66
2024-04-10T00:11:11.162Z,19.60
2024-04-10T00:13:43.052Z,19.54
2024-04-10T00:16:14.594Z,19.49
2024-04-10T00:18:47.333Z,19.42
2024-04-10T00:21:21.127Z,19.36
2024-04-10T00:23:52.560Z,19.29
2024-04-10T00:26:24.114Z,19.22
2024-04-10T00:28:56.150Z,19.15
2024-04-10T00:31:28.859Z,19.09
2024-04-10T00:34:00.452Z,19.05
2024-04-10T00:36:32.180Z,19.02
2024-04-10T00:39:03.523Z,18.97
2024-04-10T00:41:34.880Z,18.91
2024-04-10T00:44:06.850Z,18.87
2024-04-10T00:46:38.397Z,18.81
2024-04-10T00:49:11.020Z,18.75
2024-04-10T00:51:43.762Z,18.68
2024-04-10T00:54:15.963Z,18.66
2024-04-10T00:56:47.606Z,18.71
2024-04-10T00:59:19.550Z,18.72
2024-04-10T01:01:51.442Z,18.68
2024-04-10T01:04:22.810Z,18.67
2024-04-10T01:06:54.753Z,18.67
2024-04-10T01:09:26.307Z,18.62
2024-04-10T01:11:58.193Z,18.51
2024-04-10T01:14:30.938Z,18.38
2024-04-10T01:17:02.735Z,18.24
2024-04-10T01:19:34.990Z,18.15
2024-04-10T01:22:07.576Z,18.04
2024-04-10T01:24:39.138Z,17.92
2024-04-10T01:27:10.684Z,17.79
2024-04-10T01:29:43.066Z,17.71
2024-04-10T01:32:14.701Z,17.61
2024-04-10T01:34:46.341Z,17.49
2024-04-10T01:37:18.348Z,17.37
2024-04-10T01:39:49.717Z,17.29
2024-04-10T01:42:22.489Z,17.21
2024-04-10T01:44:54.040Z,17.10
2024-04-10T01:47:25.755Z,17.00
2024-04-10T01:49:57.599Z,16.87
2024-04-10T01:52:29.134Z,16.77
2024-04-10T01:55:00.686Z,16.69
2024-04-10T01:57:32.439Z,16.65
2024-04-10T02:00:04.206Z,16.56
2024-04-10T02:02:36.480Z,16.48
2024-04-10T02:05:09.354Z,16.41
2024-04-10T02:07:41.961Z,16.32
2024-04-10T02:10:13.331Z,16.24
2024-04-10T02:12:44.853Z,16.21
2024-04-10T02:15:16.432Z,16.18
2024-04-10T02:17:48.042Z,16.13
2024-04-10T02:20:19.782Z,16.10
2024-04-10T02:22:51.933Z,16.06
2024-04-10T02:25:23.219Z,16.04
2024-04-10T02:27:53.178Z,16.04
2024-04-10T02:30:24.317Z,15.99
2024-04-10T02:32:56.182Z,15.95
2024-04-10T02:35:29.306Z,15.92
2024-04-10T02:38:00.862Z,15.87
2024-04-10T02:40:34.029Z,15.83
2024-04-10T02:43:06.659Z,15.84
2024-04-10T02:45:38.202Z,15.82
2024-04-10T02:48:10.404Z,15.80
2024-04-10T02:50:41.924Z,15.75
2024-04-10T02:53:13.469Z,15.70
2024-04-10T02:55:46.804Z,15.65
2024-04-10T02:58:19.634Z,15.63
2024-04-10T03:00:52.724Z,15.61
2024-04-10T03:03:26.384Z,15.58
2024-04-10T03:06:04.790Z,15.53
2024-04-10T03:08:36.694Z,15.46
2024-04-10T03:11:09.300Z,15.41
2024-04-10T03:13:43.707Z,15.40
2024-04-10T03:16:15.180Z,15.40
2024-04-10T03:18:46.674Z,15.37
2024-04-10T03:21:18.080Z,15.34
2024-04-10T03:23:50.057Z,15.29
2024-04-10T03:26:21.614Z,15.26
2024-04-10T03:28:52.981Z,15.25
2024-04-10T03:31:24.770Z,15.23
2024-04-10T03:33:56.246Z,15.19
2024-04-10T03:36:27.719Z,15.15
2024-04-10T03:38:59.080Z,15.10
2024-04-10T03:41:30.580Z,15.03
2024-04-10T03:44:02.094Z,15.00
2024-04-10T03:46:33.610Z,14.99
2024-04-10T03:49:05.081Z,14.95
2024-04-10T03:51:36.508Z,14.91
2024-04-10T03:54:07.892Z,14.85
2024-04-10T03:56:39.446Z,14.80
2024-04-10T03:59:10.861Z,14.79
2024-04-10T04:01:42.298Z,14.76
2024-04-10T04:04:13.757Z,14.73
2024-04-10T04:06:45.774Z,14.72
2024-04-10T04:09:17.193Z,14.69
2024-04-10T04:11:48.568Z,14.70
2024-04-10T04:14:20.241Z,14.73
2024-04-10T04:16:51.646Z,14.69
2024-04-10T04:19:23.160Z,14.66
2024-04-10T04:21:54.491Z,14.64
2024-04-10T04:24:27.558Z,14.62
2024-04-10T04:26:58.914Z,14.65
2024-04-10T04:29:30.799Z,14.66
2024-04-10T04:32:02.622Z,14.64
2024-04-10T04:34:34.017Z,14.64
2024-04-10T04:37:06.626Z,14.64
2024-04-10T04:39:37.985Z,14.63
2024-04-10T04:42:09.912Z,14.67
2024-04-10T04:44:41.293Z,14.70
2024-04-10T04:47:12.926Z,14.71
2024-04-10T04:49:44.438Z,14.70
2024-04-10T04:52:15.768Z,14.71
2024-04-10T04:54:47.178Z,14.73
2024-04-10T04:57:19.904Z,14.78
2024-04-10T04:59:51.215Z,14.76
2024-04-10T05:02:22.949Z,14.77
2024-04-10T05:04:59.005Z,14.79
2024-04-10T05:07:30.380Z,14.83
2024-04-10T05:10:00.362Z,14.87
2024-04-10T05:12:31.841Z,14.90
2024-04-10T05:15:03.358Z,14.96
2024-04-10T05:17:34.940Z,14.98
2024-04-10T05:20:10.217Z,14.99
2024-04-10T05:22:42.333Z,15.00
2024-04-10T05:25:14.441Z,15.00
2024-04-10T05:27:45.844Z,15.01
2024-04-10T05:30:17.559Z,15.05
2024-04-10T05:32:49.249Z,15.04
2024-04-10T05:35:20.959Z,15.04
2024-04-10T05:37:52.390Z,15.04
2024-04-10T05:40:23.901Z,15.04
2024-04-10T05:42:55.270Z,15.06
2024-04-10T05:45:26.746Z,15.08
2024-04-10T05:47:58.253Z,15.08
2024-04-10T05:50:29.643Z,15.09
2024-04-10T05:53:00.529Z,15.10
2024-04-10T05:55:33.895Z,15.10
2024-04-10T05:58:06.023Z,15.12
2024-04-10T06:00:39.104Z,15.17
2024-04-10T06:03:10.604Z,15.18
2024-04-10T06:05:43.035Z,15.18
2024-04-10T06:08:14.492Z,15.16
2024-04-10T06:10:52.326Z,15.16
2024-04-10T06:13:23.742Z,15.11
2024-04-10T06:16:02.033Z,15.06
2024-04-10T06:18:34.957Z,15.03
2024-04-10T06:21:08.957Z,14.99
2024-04-10T06:23:44.376Z,14.93
2024-04-10T06:26:16.387Z,14.87
2024-04-10T06:28:47.726Z,14.85
2024-04-10T06:31:19.077Z,14.84
2024-04-10T06:33:49.632Z,14.82
2024-04-10T06:36:21.179Z,14.75
2024-04-10T06:38:52.628Z,14.71
2024-04-10T06:41:24.191Z,14.68
2024-04-10T06:43:55.734Z,14.66
2024-04-10T06:46:25.644Z,14.65
2024-04-10T06:48:57.196Z,14.64
2024-04-10T06:51:28.817Z,14.64
2024-04-10T06:54:00.388Z,14.66
2024-04-10T06:56:33.238Z,14.64
2024-04-10T06:59:04.962Z,14.63
2024-04-10T07:01:37.292Z,14.64
2024-04-10T07:04:09.099Z,14.66
2024-04-10T07:06:40.609Z,14.66
2024-04-10T07:09:12.574Z,14.66
2024-04-10T07:11:44.253Z,14.66
2024-04-10T07:14:15.905Z,14.67
2024-04-10T07:16:47.720Z,14.68
2024-04-10T07:19:19.202Z,14.72
2024-04-10T07:21:50.761Z,14.75
2024-04-10T07:24:22.319Z,14.80
2024-04-10T07:26:54.113Z,14.83
2024-04-10T07:29:25.689Z,14.86
2024-04-10T07:31:57.109Z,14.90
2024-04-10T07:34:27.284Z,14.93
2024-04-10T07:36:58.675Z,14.96
2024-04-10T07:39:28.507Z,15.00
2024-04-10T07:41:59.839Z,15.03
2024-04-10T07:44:31.198Z,15.08
2024-04-10T07:47:04.826Z,15.11
2024-04-10T07:49:36.416Z,15.17
2024-04-10T07:52:09.448Z,15.23
2024-04-10T07:54:40.774Z,15.30
2024-04-10T07:57:12.214Z,15.34
2024-04-10T07:59:43.631Z,15.40
2024-04-10T08:02:15.060Z,15.44
2024-04-10T08:04:46.556Z,15.51
2024-04-10T08:07:18.388Z,15.60
2024-04-10T08:09:49.802Z,15.71
2024-04-10T08:12:21.510Z,15.77
2024-04-10T08:14:55.417Z,15.83
2024-04-10T08:17:27.308Z,15.87
2024-04-10T08:19:59.245Z,15.92
2024-04-10T08:22:30.558Z,16.03
2024-04-10T08:25:00.384Z,16.15
2024-04-10T08:27:32.210Z,16.22
2024-04-10T08:30:03.645Z,16.32
2024-04-10T08:32:37.215Z,16.47
2024-04-10T08:35:09.764Z,16.61
2024-04-10T08:37:41.252Z,16.69
2024-04-10T08:40:13.526Z,16.71
2024-04-10T08:42:49.777Z,16.70
2024-04-10T08:45:27.654Z,16.66
2024-04-10T08:48:01.257Z,16.59
2024-04-10T08:50:38.045Z,16.59
2024-04-10T08:53:11.418Z,16.66
2024-04-10T08:55:54.751Z,16.70
2024-04-10T08:58:34.604Z,16.71
2024-04-10T09:01:07.340Z,16.70
2024-04-10T09:03:39.826Z,16.73
2024-04-10T09:06:11.702Z,16.71
2024-04-10T09:08:43.009Z,16.73
2024-04-10T09:11:14.412Z,16.76
2024-04-10T09:13:45.864Z,16.76
2024-04-10T09:16:24.416Z,16.71
2024-04-10T09:18:55.935Z,16.66
2024-04-10T09:21:27.380Z,16.59
2024-04-10T09:24:06.774Z,16.58
2024-04-10T09:26:42.727Z,16.56
2024-04-10T09:29:17.617Z,16.56
2024-04-10T09:31:52.935Z,16.54
2024-04-10T09:34:24.638Z,16.50
2024-04-10T09:36:56.309Z,16.42
2024-04-10T09:39:30.849Z,16.33
2024-04-10T09:42:03.394Z,16.28
2024-04-10T09:44:37.785Z,16.29
2024-04-10T09:47:16.080Z,16.32
2024-04-10T09:49:51.069Z,16.35
2024-04-10T09:52:22.545Z,16.44
2024-04-10T09:54:54.995Z,16.59
2024-04-10T09:57:28.719Z,16.77
2024-04-10T10:00:03.201Z,17.00
2024-04-10T10:02:35.386Z,17.22
2024-04-10T10:05:07.486Z,17.46
2024-04-10T10:07:38.798Z,17.67
2024-04-10T10:10:11.785Z,17.86
2024-04-10T10:12:43.155Z,18.03
2024-04-10T10:15:16.214Z,18.12
2024-04-10T10:18:01.174Z,18.19
2024-04-10T10:20:36.369Z,18.26
2024-04-10T10:23:11.405Z,18.30
2024-04-10T10:25:45.692Z,18.26
2024-04-10T10:28:18.201Z,18.13
2024-04-10T10:30:52.691Z,17.96
2024-04-10T10:33:24.306Z,17.84
2024-04-10T10:36:02.318Z,17.67
2024-04-10T10:38:33.776Z,17.49
2024-04-10T10:41:18.324Z,17.37
2024-04-10T10:44:02.089Z,17.25
2024-04-10T10:46:35.733Z,17.16
2024-04-10T10:49:07.167Z,17.17
2024-04-10T10:51:38.735Z,17.19
2024-04-10T10:54:10.876Z,17.18
2024-04-10T10:56:42.192Z,17.15
2024-04-10T10:59:15.498Z,17.13
2024-04-10T11:01:46.985Z,17.14
2024-04-10T11:04:18.920Z,17.16
2024-04-10T11:06:50.669Z,17.19
2024-04-10T11:09:23.823Z,17.20
2024-04-10T11:12:05.374Z,17.27
2024-04-10T11:14:36.915Z,17.35
2024-04-10T11:17:17.309Z,17.46
2024-04-10T11:19:52.758Z,17.53
2024-04-10T11:22:26.483Z,17.60
2024-04-10T11:24:57.826Z,17.64
2024-04-10T11:27:29.798Z,17.62
2024-04-10T11:30:01.310Z,17.65
2024-04-10T11:32:33.567Z,17.69
2024-04-10T11:35:05.479Z,17.71
2024-04-10T11:37:36.889Z,17.71
2024-04-10T11:40:13.847Z,17.65
2024-04-10T11:42:45.414Z,17.61
2024-04-10T11:45:17.313Z,17.63
2024-04-10T11:47:50.889Z,17.65
2024-04-10T11:50:22.531Z,17.65
2024-04-10T11:52:54.072Z,17.62
2024-04-10T11:55:26.721Z,17.55
2024-04-10T11:57:58.116Z,17.53
2024-04-10T12:00:29.477Z,17.53
2024-04-10T12:03:00.887Z,17.52
2024-04-10T12:05:34.011Z,17.48
2024-04-10T12:08:07.728Z,17.37
2024-04-10T12:10:40.780Z,17.28
2024-04-10T12:13:12.162Z,17.23
2024-04-10T12:15:43.560Z,17.16
2024-04-10T12:18:14.950Z,17.06
2024-04-10T12:20:47.504Z,16.96
2024-04-10T12:23:18.949Z,16.87
2024-04-10T12:25:51.226Z,16.75
2024-04-10T12:28:22.547Z,16.65
2024-04-10T12:30:55.370Z,16.57
2024-04-10T12:33:30.077Z,16.52
2024-04-10T12:36:20.408Z,16.45
2024-04-10T12:38:52.453Z,16.32
2024-04-10T12:41:23.887Z,16.24
2024-04-10T12:43:56.404Z,16.16
2024-04-10T12:46:29.387Z,16.08
2024-04-10T12:49:01.079Z,16.05
2024-04-10T12:51:34.112Z,16.02
2024-04-10T12:54:05.563Z,15.94
2024-04-10T12:56:37.027Z,15.89
2024-04-10T12:59:11.529Z,15.81
2024-04-10T13:01:43.082Z,15.74
2024-04-10T13:04:14.737Z,15.68
2024-04-10T13:06:48.427Z,15.63
2024-04-10T13:09:21.538Z,15.58
2024-04-10T13:11:53.052Z,15.57
2024-04-10T13:14:24.502Z,15.58
2024-04-10T13:16:55.936Z,15.65
2024-04-10T13:19:29.177Z,15.68
2024-04-10T13:22:00.530Z,15.69
2024-04-10T13:24:32.418Z,15.71
2024-04-10T13:27:04.820Z,15.73
2024-04-10T13:29:36.197Z,15.81
2024-04-10T13:32:09.514Z,15.94
2024-04-10T13:34:41.995Z,16.04
2024-04-10T13:37:26.135Z,16.09
2024-04-10T13:40:02.966Z,16.06
2024-04-10T13:42:34.325Z,16.07
2024-04-10T13:45:06.643Z,16.06
2024-04-10T13:47:38.175Z,16.04
2024-04-10T13:50:10.490Z,16.05
2024-04-10T13:52:41.877Z,16.10
2024-04-10T13:55:13.271Z,16.18
2024-04-10T13:57:44.696Z,16.26
2024-04-10T14:00:18.800Z,16.42
2024-04-10T14:02:50.408Z,16.77
2024-04-10T14:05:22.108Z,17.04
2024-04-10T14:07:54.373Z,17.22
2024-04-10T14:10:29.114Z,17.31
2024-04-10T14:13:00.459Z,17.38
2024-04-10T14:15:31.855Z,17.45
2024-04-10T14:18:03.275Z,17.53
2024-04-10T14:20:35.528Z,17.63
2024-04-10T14:23:10.094Z,17.68
2024-04-10T14:25:41.697Z,17.72
2024-04-10T14:28:12.991Z,17.74
2024-04-10T14:30:54.841Z,17.74
2024-04-10T14:33:26.314Z,17.78
2024-04-10T14:35:58.772Z,17.77
2024-04-10T14:38:30.605Z,17.77
2024-04-10T14:41:03.250Z,17.77
2024-04-10T14:43:36.985Z,17.73
2024-04-10T14:46:16.902Z,17.66
2024-04-10T14:48:51.298Z,17.56
2024-04-10T14:51:24.500Z,17.43
2024-04-10T14:53:55.836Z,17.30
2024-04-10T14:56:29.528Z,17.20
2024-04-10T14:59:01.066Z,17.07
2024-04-10T15:01:32.828Z,16.95
2024-04-10T15:04:04.512Z,16.87
2024-04-10T15:06:36.083Z,16.82
2024-04-10T15:09:07.524Z,16.84
2024-04-10T15:11:39.153Z,16.95
2024-04-10T15:14:10.673Z,17.14
2024-04-10T15:16:42.197Z,17.35
2024-04-10T15:19:13.625Z,17.48
2024-04-10T15:21:45.102Z,17.58
2024-04-10T15:24:17.275Z,17.68
2024-04-10T15:26:48.916Z,17.80
2024-04-10T15:29:20.252Z,17.94
2024-04-10T15:31:51.791Z,17.99
2024-04-10T15:34:23.562Z,17.89
2024-04-10T15:36:58.052Z,17.76
2024-04-10T15:39:31.649Z,17.64
2024-04-10T15:42:03.851Z,17.57
2024-04-10T15:44:35.611Z,17.47
2024-04-10T15:47:08.092Z,17.36
2024-04-10T15:49:41.430Z,17.28
2024-04-10T15:52:30.834Z,17.19
2024-04-10T15:55:08.032Z,17.09
2024-04-10T15:57:39.501Z,17.06
2024-04-10T16:00:14.063Z,17.03
2024-04-10T16:02:48.821Z,16.96
2024-04-10T16:05:20.624Z,16.88
2024-04-10T16:07:52.482Z,16.78
2024-04-10T16:10:23.760Z,16.69
2024-04-10T16:12:55.389Z,16.55
2024-04-10T16:15:28.095Z,16.44
2024-04-10T16:17:59.994Z,16.30
2024-04-10T16:20:31.743Z,16.19
2024-04-10T16:23:03.261Z,16.09
2024-04-10T16:25:34.816Z,16.00
2024-04-10T16:28:08.060Z,15.93
2024-04-10T16:30:42.651Z,15.86
2024-04-10T16:33:14.419Z,15.81
2024-04-10T16:35:47.125Z,15.73
2024-04-10T16:38:19.397Z,15.63
2024-04-10T16:40:58.691Z,15.54
2024-04-10T16:43:32.613Z,15.44
2024-04-10T16:46:09.316Z,15.37
2024-04-10T16:48:41.327Z,15.29
2024-04-10T16:51:13.282Z,15.23
2024-04-10T16:53:45.750Z,15.18
2024-04-10T16:56:21.621Z,15.12
2024-04-10T16:58:53.143Z,15.06
2024-04-10T17:01:24.720Z,15.01
2024-04-10T17:03:56.440Z,14.95
2024-04-10T17:06:28.435Z,14.90
2024-04-10T17:09:00.022Z,14.86
2024-04-10T17:11:31.776Z,14.80
2024-04-10T17:14:03.466Z,14.79
2024-04-10T17:16:35.130Z,14.78
2024-04-10T17:19:26.745Z,14.74
2024-04-10T17:22:00.856Z,14.70
2024-04-10T17:24:34.070Z,14.68
2024-04-10T17:27:06.792Z,14.65
2024-04-10T17:29:38.447Z,14.62
2024-04-10T17:32:10.388Z,14.55
2024-04-10T17:34:42.825Z,14.51
2024-04-10T17:37:14.723Z,14.46
2024-04-10T17:39:46.705Z,14.41
2024-04-10T17:42:18.243Z,14.36
2024-04-10T17:44:50.672Z,14.31
2024-04-10T17:47:22.409Z,14.25
2024-04-10T17:49:54.344Z,14.22
2024-04-10T17:52:25.917Z,14.17
2024-04-10T17:54:58.815Z,14.11
2024-04-10T17:57:30.246Z,14.05
2024-04-10T18:00:02.022Z,13.99
2024-04-10T18:02:35.867Z,13.94
2024-04-10T18:05:08.579Z,13.89
2024-04-10T18:07:40.160Z,13.90
2024-04-10T18:10:11.959Z,13.88
2024-04-10T18:12:43.475Z,13.84
2024-04-10T18:15:15.226Z,13.82
2024-04-10T18:17:47.017Z,13.81
2024-04-10T18:20:18.810Z,13.78
2024-04-10T18:22:51.255Z,13.76
2024-04-10T18:25:23.716Z,13.73
2024-04-10T18:27:55.269Z,13.70
2024-04-10T18:30:26.832Z,13.69
2024-04-10T18:32:58.917Z,13.67
2024-04-10T18:35:30.364Z,13.66
2024-04-10T18:38:00.270Z,13.65
2024-04-10T18:40:32.252Z,13.60
2024-04-10T18:43:04.516Z,13.57
2024-04-10T18:45:37.395Z,13.58
2024-04-10T18:48:10.429Z,13.60
2024-04-10T18:50:42.771Z,13.63
2024-04-10T18:53:14.055Z,13.64
2024-04-10T18:55:58.791Z,13.65
2024-04-10T18:58:30.812Z,13.67
2024-04-10T19:01:05.098Z,13.66
2024-04-10T19:03:39.778Z,13.62
2024-04-10T19:06:14.789Z,13.60
2024-04-10T19:08:46.855Z,13.58
2024-04-10T19:11:19.443Z,13.59
2024-04-10T19:13:52.384Z,13.56
2024-04-10T19:16:23.969Z,13.55
2024-04-10T19:18:55.623Z,13.51
2024-04-10T19:21:27.250Z,13.51
2024-04-10T19:23:58.850Z,13.55
2024-04-10T19:26:30.618Z,13.56
2024-04-10T19:29:02.266Z,13.55
2024-04-10T19:31:33.690Z,13.56
2024-04-10T19:34:05.451Z,13.58
2024-04-10T19:36:36.999Z,13.59
2024-04-10T19:39:10.297Z,13.59
2024-04-10T19:41:42.601Z,13.60
2024-04-10T19:44:14.134Z,13.60
2024-04-10T19:46:47.203Z,13.57
2024-04-10T19:49:19.210Z,13.55
2024-04-10T19:51:51.462Z,13.53
2024-04-10T19:54:22.812Z,13.52
2024-04-10T19:56:55.528Z,13.51
2024-04-10T19:59:26.993Z,13.49
2024-04-10T20:01:59.171Z,13.51
2024-04-10T20:04:30.721Z,13.51
2024-04-10T20:07:02.240Z,13.52
2024-04-10T20:09:36.243Z,13.53
2024-04-10T20:12:08.806Z,13.56
2024-04-10T20:14:40.259Z,13.58
2024-04-10T20:17:10.300Z,13.60
2024-04-10T20:19:42.081Z,13.59
2024-04-10T20:22:14.457Z,13.60
2024-04-10T20:24:46.223Z,13.62
2024-04-10T20:27:17.757Z,13.62
2024-04-10T20:29:49.353Z,13.64
2024-04-10T20:32:21.170Z,13.66
2024-04-10T20:34:56.589Z,13.67
2024-04-10T20:37:33.613Z,13.68
2024-04-10T20:40:05.570Z,13.68
2024-04-10T20:42:37.980Z,13.68
2024-04-10T20:45:10.298Z,13.68
2024-04-10T20:47:43.394Z,13.67
2024-04-10T20:50:15.287Z,13.67
2024-04-10T20:52:46.834Z,13.66
2024-04-10T20:55:18.848Z,13.64
2024-04-10T20:57:50.355Z,13.62
2024-04-10T21:00:22.028Z,13.60
2024-04-10T21:02:53.841Z,13.60
2024-04-10T21:05:32.486Z,13.60
2024-04-10T21:08:21.815Z,13.59
2024-04-10T21:11:11.167Z,13.58
2024-04-10T21:14:00.538Z,13.58
2024-04-10T21:16:49.843Z,13.57
2024-04-10T21:19:39.265Z,13.55
2024-04-10T21:22:28.646Z,13.54
2024-04-10T21:25:23.135Z,13.54
2024-04-10T21:28:13.124Z,13.53
2024-04-10T21:31:02.906Z,13.54
2024-04-10T21:33:52.438Z,13.54
2024-04-10T21:36:41.663Z,13.54
2024-04-10T21:39:31.637Z,13.54
2024-04-10T21:42:20.820Z,13.54
2024-04-10T21:45:10.358Z,13.53
2024-04-10T21:48:00.564Z,13.52
2024-04-10T21:50:52.238Z,13.51
2024-04-10T21:53:41.612Z,13.51
2024-04-10T21:56:31.064Z,13.49
2024-04-10T21:59:20.601Z,13.46
2024-04-10T22:02:12.335Z,13.44
2024-04-10T22:05:03.778Z,13.42
2024-04-10T22:07:53.294Z,13.40
2024-04-10T22:10:30.066Z,13.38
2024-04-10T22:13:01.599Z,13.35
2024-04-10T22:15:34.740Z,13.33
2024-04-10T22:18:24.755Z,13.33
2024-04-10T22:21:14.767Z,13.31
2024-04-10T22:24:02.637Z,13.27
2024-04-10T22:26:35.625Z,13.24
2024-04-10T22:29:08.483Z,13.22
2024-04-10T22:31:39.829Z,13.20
2024-04-10T22:34:10.108Z,13.20
2024-04-10T22:36:41.923Z,13.17
2024-04-10T22:39:13.933Z,13.15
2024-04-10T22:41:45.474Z,13.14
2024-04-10T22:44:19.273Z,13.14
2024-04-10T22:46:51.828Z,13.13
2024-04-10T22:49:23.801Z,13.10
2024-04-10T22:51:58.422Z,13.09
2024-04-10T22:54:29.772Z,13.08
2024-04-10T22:57:01.540Z,13.06
2024-04-10T22:59:33.541Z,13.05
2024-04-10T23:02:05.157Z,13.04
2024-04-10T23:04:36.835Z,13.02
2024-04-10T23:07:35.213Z,13.00
2024-04-10T23:10:00.650Z,12.98
2024-04-10T23:12:32.424Z,12.96
2024-04-10T23:15:02.670Z,12.94
2024-04-10T23:17:34.434Z,12.91
2024-04-10T23:20:06.899Z,12.90
2024-04-10T23:22:38.794Z,12.89
2024-04-10T23:25:10.556Z,12.88
2024-04-10T23:27:42.112Z,12.86
2024-04-10T23:30:14.451Z,12.83
2024-04-10T23:32:46.428Z,12.80
2024-04-10T23:35:18.062Z,12.79
2024-04-10T23:37:50.994Z,12.75
2024-04-10T23:40:23.162Z,12.71
2024-04-10T23:42:54.722Z,12.68
2024-04-10T23:45:27.709Z,12.66
2024-04-10T23:47:59.329Z,12.62
2024-04-10T23:50:31.247Z,12.59
2024-04-10T23:53:03.205Z,12.55
2024-04-10T23:55:34.777Z,12.50
2024-04-10T23:58:13.475Z,12.47
